Time;durP1;ratioP1;P1;durP2;ratioP2;P2;SDS_P1;SDS_P2;PMS_P1;PMS_P2;Temp;Humidity;BMP_temperature;BMP_pressure;BME280_temperature;BME280_humidity;BME280_pressure;Samples;Min_cycle;Max_cycle;Signal;HPM_P1;HPM_P2
2022/12/31 00:01:59;;;;;;;9.82;6.53;;;12.40;99.90;;;;;;7376755;19;20026;-52
2022/12/31 00:04:26;;;;;;;12.82;7.68;;;12.40;99.90;;;;;;7373754;19;20027;-51
2022/12/31 00:06:52;;;;;;;10.98;7.38;;;12.30;99.90;;;;;;7375250;19;20612;-52
2022/12/31 00:09:20;;;;;;;10.88;7.82;;;12.30;99.90;;;;;;7371987;19;20014;-55
2022/12/31 00:11:46;;;;;;;11.63;7.43;;;12.30;99.90;;;;;;7376430;19;20120;-55
2022/12/31 00:14:13;;;;;;;13.00;7.95;;;12.30;99.90;;;;;;7370598;19;20440;-56
2022/12/31 00:16:40;;;;;;;10.35;7.63;;;12.30;99.90;;;;;;7370293;19;20022;-51
2022/12/31 00:19:10;;;;;;;11.43;8.73;;;12.20;99.90;;;;;;7367693;19;20038;-51
2022/12/31 00:21:38;;;;;;;14.23;8.15;;;12.20;99.90;;;;;;7369331;19;20023;-57
2022/12/31 00:24:06;;;;;;;14.48;8.57;;;12.20;99.90;;;;;;7364827;19;20342;-57
2022/12/31 00:26:33;;;;;;;15.70;9.25;;;12.20;99.90;;;;;;7371933;19;20022;-52
2022/12/31 00:29:01;;;;;;;14.95;9.48;;;12.20;99.90;;;;;;7371250;19;20069;-51
2022/12/31 00:31:30;;;;;;;15.48;9.02;;;12.20;99.90;;;;;;7371338;19;20019;-52
2022/12/31 00:33:57;;;;;;;13.70;8.55;;;12.20;99.90;;;;;;7369050;19;20049;-50
2022/12/31 00:36:27;;;;;;;12.35;7.70;;;12.20;99.90;;;;;;7374684;19;20018;-52
2022/12/31 00:38:55;;;;;;;12.60;7.95;;;12.20;99.90;;;;;;7373726;19;20014;-52
2022/12/31 00:41:22;;;;;;;14.43;8.10;;;12.20;99.90;;;;;;7369529;19;20054;-52
2022/12/31 00:43:49;;;;;;;10.70;7.50;;;12.10;99.90;;;;;;7373481;19;20042;-47
2022/12/31 00:46:16;;;;;;;11.48;7.40;;;12.20;99.90;;;;;;7371696;19;20015;-47
2022/12/31 00:48:43;;;;;;;11.60;7.00;;;12.20;99.90;;;;;;7369513;19;21882;-52
2022/12/31 00:51:12;;;;;;;10.77;7.32;;;12.20;99.90;;;;;;7370971;19;20408;-52
2022/12/31 00:53:39;;;;;;;7.65;6.57;;;12.20;99.90;;;;;;7367431;19;21137;-52
2022/12/31 00:56:11;;;;;;;10.63;6.57;;;12.20;99.90;;;;;;7373235;19;20404;-51
2022/12/31 00:58:37;;;;;;;9.90;6.82;;;12.30;99.90;;;;;;7369997;19;20037;-52
2022/12/31 01:01:19;;;;;;;10.35;7.60;;;12.20;99.90;;;;;;7370735;19;20502;-52
2022/12/31 01:03:48;;;;;;;8.32;6.43;;;12.20;99.90;;;;;;7371549;19;20018;-52
2022/12/31 01:06:15;;;;;;;10.10;6.70;;;12.20;99.90;;;;;;7372416;19;20431;-53
2022/12/31 01:08:46;;;;;;;9.35;6.53;;;12.30;99.90;;;;;;7371294;19;20149;-53
2022/12/31 01:11:18;;;;;;;9.23;6.90;;;12.30;99.90;;;;;;7369792;19;20023;-51
2022/12/31 01:13:52;;;;;;;11.18;6.60;;;12.30;99.90;;;;;;7368116;19;20125;-57
2022/12/31 01:16:23;;;;;;;8.30;5.93;;;12.30;99.90;;;;;;7371269;19;20574;-56
2022/12/31 01:18:50;;;;;;;10.02;6.30;;;12.30;99.90;;;;;;7365404;19;20046;-57
2022/12/31 01:21:17;;;;;;;8.25;5.88;;;12.30;99.90;;;;;;7373499;19;20021;-57
2022/12/31 01:23:44;;;;;;;7.70;5.53;;;12.30;99.90;;;;;;7377778;19;20023;-56
2022/12/31 01:26:13;;;;;;;8.52;6.38;;;12.30;99.90;;;;;;7379430;19;20023;-56
2022/12/31 01:28:39;;;;;;;8.68;5.90;;;12.30;99.90;;;;;;7376014;19;20014;-56
2022/12/31 01:31:11;;;;;;;8.85;5.28;;;12.30;99.90;;;;;;7377345;19;21341;-56
2022/12/31 01:33:40;;;;;;;8.32;5.55;;;12.30;99.90;;;;;;7374288;19;20021;-56
2022/12/31 01:36:10;;;;;;;8.77;6.57;;;12.30;99.90;;;;;;7376807;19;20028;-56
2022/12/31 01:38:36;;;;;;;9.35;5.80;;;12.30;99.90;;;;;;7375286;19;20375;-56
2022/12/31 01:41:03;;;;;;;9.05;5.90;;;12.20;99.90;;;;;;7370397;19;20278;-56
2022/12/31 01:43:49;;;;;;;8.05;5.40;;;12.20;99.90;;;;;;7378120;19;20026;-56
2022/12/31 01:46:46;;;;;;;8.25;6.15;;;12.20;99.90;;;;;;7377354;19;20033;-56
2022/12/31 01:49:35;;;;;;;7.75;5.75;;;12.20;99.90;;;;;;7378499;19;20022;-57
2022/12/31 01:52:04;;;;;;;9.82;5.55;;;12.10;99.90;;;;;;7374721;19;20018;-56
2022/12/31 01:54:34;;;;;;;9.73;5.90;;;12.10;99.90;;;;;;7374606;19;20026;-55
2022/12/31 01:57:02;;;;;;;6.05;4.78;;;12.20;99.90;;;;;;7376862;19;20378;-56
2022/12/31 01:59:30;;;;;;;7.95;5.13;;;12.10;99.90;;;;;;7375460;19;20025;-56
2022/12/31 02:01:58;;;;;;;7.50;5.50;;;12.00;99.90;;;;;;7375392;19;20301;-55
2022/12/31 02:04:29;;;;;;;7.05;4.93;;;12.00;99.90;;;;;;7374080;19;20114;-50
2022/12/31 02:07:06;;;;;;;6.68;4.50;;;12.00;99.90;;;;;;7376507;19;20455;-56
2022/12/31 02:09:35;;;;;;;8.63;5.30;;;12.00;99.90;;;;;;7379763;19;20131;-56
2022/12/31 02:12:01;;;;;;;9.45;4.93;;;12.00;99.90;;;;;;7371896;19;20492;-55
2022/12/31 02:14:44;;;;;;;7.78;4.97;;;12.00;99.90;;;;;;7370718;19;20026;-56
2022/12/31 02:17:10;;;;;;;9.57;4.72;;;12.00;99.90;;;;;;7377687;19;20597;-55
2022/12/31 02:20:05;;;;;;;6.82;4.18;;;12.00;99.90;;;;;;7371637;19;20049;-56
2022/12/31 02:22:55;;;;;;;9.93;4.82;;;12.00;99.90;;;;;;7375658;19;20550;-56
2022/12/31 02:25:39;;;;;;;6.45;4.30;;;12.00;99.90;;;;;;7376381;19;20596;-56
2022/12/31 02:28:39;;;;;;;9.18;4.90;;;11.90;99.90;;;;;;7378375;19;20019;-55
2022/12/31 02:31:20;;;;;;;6.35;4.30;;;11.90;99.90;;;;;;7377470;19;20026;-55
2022/12/31 02:33:58;;;;;;;6.82;4.10;;;11.90;99.90;;;;;;7376988;19;20007;-55
2022/12/31 02:36:34;;;;;;;6.70;3.75;;;11.80;99.90;;;;;;7376636;19;20419;-55
2022/12/31 02:39:04;;;;;;;6.68;3.20;;;11.80;99.90;;;;;;7374643;19;20018;-56
2022/12/31 02:41:48;;;;;;;7.57;2.85;;;11.80;99.90;;;;;;7375261;19;20018;-56
2022/12/31 02:44:24;;;;;;;7.32;2.30;;;11.80;99.90;;;;;;7375054;19;20022;-56
2022/12/31 02:47:19;;;;;;;5.32;1.70;;;11.70;99.90;;;;;;7379788;19;20055;-56
2022/12/31 02:50:07;;;;;;;5.82;1.65;;;11.70;99.90;;;;;;7376527;19;20019;-56
2022/12/31 02:52:57;;;;;;;2.97;1.17;;;11.60;99.90;;;;;;7375756;19;20030;-56
2022/12/31 02:55:42;;;;;;;4.88;1.50;;;11.60;99.90;;;;;;7373804;19;20011;-56
2022/12/31 02:58:20;;;;;;;2.92;1.25;;;11.50;99.90;;;;;;7375038;19;20025;-56
2022/12/31 03:03:40;;;;;;;3.78;1.45;;;11.50;99.90;;;;;;7374980;19;20019;-56
2022/12/31 03:06:07;;;;;;;3.72;1.77;;;11.50;99.90;;;;;;7371968;19;20018;-56
2022/12/31 03:09:26;;;;;;;3.33;1.47;;;11.50;99.90;;;;;;7376546;19;20022;-56
2022/12/31 03:14:13;;;;;;;7.25;2.22;;;11.40;99.90;;;;;;7376626;19;20510;-56
2022/12/31 03:16:39;;;;;;;5.45;2.60;;;11.40;99.90;;;;;;7364729;19;20049;-56
2022/12/31 03:27:35;;;;;;;6.85;2.83;;;11.30;99.90;;;;;;7374557;19;20088;-51
2022/12/31 03:30:04;;;;;;;4.85;2.50;;;11.30;99.90;;;;;;7374794;19;20021;-49
2022/12/31 03:32:41;;;;;;;7.20;2.90;;;11.30;99.90;;;;;;7372049;19;20620;-55
2022/12/31 03:35:11;;;;;;;9.15;2.83;;;11.30;99.90;;;;;;7372641;19;20417;-52
2022/12/31 03:37:39;;;;;;;6.68;3.00;;;11.30;99.90;;;;;;7373775;19;20431;-52
2022/12/31 03:40:08;;;;;;;5.47;3.10;;;11.40;99.90;;;;;;7367977;19;20022;-50
2022/12/31 03:42:37;;;;;;;;;;;11.40;99.90;;;;;;7370118;19;20491;-48
2022/12/31 03:45:04;;;;;;;7.03;3.67;;;11.30;99.90;;;;;;7372150;19;19925;-52
2022/12/31 03:47:31;;;;;;;7.75;4.43;;;11.40;99.90;;;;;;7375018;19;20014;-51
2022/12/31 03:49:58;;;;;;;5.88;4.65;;;11.40;99.90;;;;;;7374379;19;20023;-51
2022/12/31 03:52:24;;;;;;;7.03;4.38;;;11.30;99.90;;;;;;7375322;19;20371;-56
2022/12/31 03:54:50;;;;;;;10.55;4.32;;;11.30;99.90;;;;;;7371037;19;20604;-56
2022/12/31 03:57:17;;;;;;;9.25;4.53;;;11.40;99.90;;;;;;7371056;19;20569;-51
2022/12/31 03:59:43;;;;;;;8.35;4.80;;;11.40;99.90;;;;;;7371998;19;20451;-51
2022/12/31 04:02:12;;;;;;;9.13;4.80;;;11.40;99.90;;;;;;7373194;19;20063;-52
2022/12/31 04:04:39;;;;;;;6.43;5.05;;;11.40;99.90;;;;;;7371007;19;20505;-55
2022/12/31 04:07:06;;;;;;;10.45;5.28;;;11.50;99.90;;;;;;7370451;19;20018;-51
2022/12/31 04:09:32;;;;;;;8.52;5.78;;;11.50;99.90;;;;;;7372035;19;20022;-52
2022/12/31 04:11:58;;;;;;;9.80;6.00;;;11.50;99.90;;;;;;7370997;19;20033;-51
2022/12/31 04:14:24;;;;;;;9.52;6.22;;;11.50;99.90;;;;;;7372476;19;20402;-47
2022/12/31 04:16:51;;;;;;;8.68;5.93;;;11.50;99.90;;;;;;7368391;19;20018;-47
2022/12/31 04:19:18;;;;;;;9.05;5.65;;;11.40;99.90;;;;;;7372852;19;20481;-49
2022/12/31 04:21:44;;;;;;;9.77;6.20;;;11.40;99.90;;;;;;7373971;19;20022;-49
2022/12/31 04:24:10;;;;;;;7.95;5.30;;;11.40;99.90;;;;;;7369608;19;20679;-47
2022/12/31 04:26:38;;;;;;;7.65;5.50;;;11.50;99.90;;;;;;7371120;19;20545;-51
2022/12/31 04:29:04;;;;;;;8.40;5.32;;;11.50;99.90;;;;;;7372322;19;20074;-51
2022/12/31 04:31:32;;;;;;;6.63;4.50;;;11.50;99.90;;;;;;7370898;19;20707;-50
2022/12/31 04:33:59;;;;;;;6.07;4.60;;;11.50;99.90;;;;;;7376393;19;20018;-51
2022/12/31 04:36:26;;;;;;;6.32;4.28;;;11.50;99.90;;;;;;7368948;19;20086;-55
2022/12/31 04:38:53;;;;;;;8.45;3.88;;;11.50;99.90;;;;;;7372051;19;20355;-54
2022/12/31 04:41:19;;;;;;;8.50;3.80;;;11.50;99.90;;;;;;7370101;19;20656;-48
2022/12/31 04:43:49;;;;;;;8.05;3.90;;;11.40;99.90;;;;;;7371379;19;20022;-52
2022/12/31 04:46:18;;;;;;;6.50;3.50;;;11.40;99.90;;;;;;7374735;19;20018;-51
2022/12/31 04:48:50;;;;;;;5.68;2.97;;;11.40;99.90;;;;;;7375287;19;20019;-56
2022/12/31 04:51:16;;;;;;;5.40;2.65;;;11.40;99.90;;;;;;7374624;19;20022;-49
2022/12/31 04:53:43;;;;;;;5.85;2.90;;;11.40;99.90;;;;;;7374815;19;20018;-52
2022/12/31 04:56:10;;;;;;;4.70;2.80;;;11.30;99.90;;;;;;7374787;19;20064;-47
2022/12/31 04:58:37;;;;;;;8.07;3.40;;;11.40;99.90;;;;;;7370180;19;20024;-55
2022/12/31 05:01:04;;;;;;;9.35;3.38;;;11.30;99.90;;;;;;7373671;19;20018;-49
2022/12/31 05:03:31;;;;;;;5.88;3.00;;;11.30;99.90;;;;;;7374114;19;20420;-56
2022/12/31 05:06:02;;;;;;;6.93;3.67;;;11.30;99.90;;;;;;7375358;19;20018;-55
2022/12/31 05:08:29;;;;;;;6.43;3.63;;;11.30;99.90;;;;;;7374658;19;20025;-51
2022/12/31 05:10:57;;;;;;;6.88;3.45;;;11.30;99.90;;;;;;7377402;19;20018;-55
2022/12/31 05:13:24;;;;;;;10.27;4.65;;;11.30;99.90;;;;;;7376284;19;20369;-55
2022/12/31 05:15:50;;;;;;;8.48;4.22;;;11.30;99.90;;;;;;7374048;19;20021;-49
2022/12/31 05:18:17;;;;;;;7.80;4.28;;;11.30;99.90;;;;;;7374277;19;20011;-48
2022/12/31 05:20:44;;;;;;;7.82;4.38;;;11.30;99.90;;;;;;7371260;19;20026;-55
2022/12/31 05:23:11;;;;;;;8.32;4.05;;;11.20;99.90;;;;;;7375468;19;20078;-53
2022/12/31 05:25:39;;;;;;;8.55;4.57;;;11.20;99.90;;;;;;7372807;19;20497;-55
2022/12/31 05:28:05;;;;;;;7.70;4.15;;;11.20;99.90;;;;;;7371796;19;20015;-56
2022/12/31 05:30:31;;;;;;;9.20;4.15;;;11.20;99.90;;;;;;7371927;19;20033;-51
2022/12/31 05:32:58;;;;;;;6.68;3.88;;;11.20;99.90;;;;;;7373470;19;20402;-56
2022/12/31 05:35:24;;;;;;;7.43;4.40;;;11.10;99.90;;;;;;7372362;19;20014;-56
2022/12/31 05:37:51;;;;;;;9.43;5.57;;;11.20;99.90;;;;;;7370745;19;20021;-56
2022/12/31 05:40:18;;;;;;;10.93;7.15;;;11.20;99.90;;;;;;7369820;19;20021;-55
2022/12/31 05:42:48;;;;;;;10.55;7.72;;;11.20;99.90;;;;;;7371654;19;20033;-57
2022/12/31 05:45:16;;;;;;;11.05;7.50;;;11.20;99.90;;;;;;7373383;19;20014;-49
2022/12/31 05:47:42;;;;;;;13.95;8.82;;;11.20;99.90;;;;;;7369385;19;20429;-56
2022/12/31 05:50:10;;;;;;;14.98;8.88;;;11.30;99.90;;;;;;7371294;19;20018;-56
2022/12/31 05:52:53;;;;;;;12.98;8.80;;;11.20;99.90;;;;;;7373595;19;20030;-56
2022/12/31 05:55:19;;;;;;;11.82;9.50;;;11.30;99.90;;;;;;7371967;19;20240;-56
2022/12/31 05:57:46;;;;;;;13.43;9.25;;;11.30;99.90;;;;;;7371072;19;20769;-56
2022/12/31 06:00:13;;;;;;;12.13;9.27;;;11.30;99.90;;;;;;7371312;19;20025;-56
2022/12/31 06:02:42;;;;;;;11.25;8.85;;;11.30;99.90;;;;;;7370704;19;20061;-56
2022/12/31 06:05:09;;;;;;;11.30;9.30;;;11.30;99.90;;;;;;7370818;19;20022;-56
2022/12/31 06:07:35;;;;;;;11.48;8.77;;;11.40;99.90;;;;;;7374244;19;20014;-56
2022/12/31 06:10:04;;;;;;;9.82;8.65;;;11.40;99.90;;;;;;7381069;19;20642;-56
2022/12/31 06:12:35;;;;;;;8.80;7.50;;;11.40;99.90;;;;;;7376138;19;20018;-55
2022/12/31 06:15:01;;;;;;;8.57;7.30;;;11.40;99.90;;;;;;7382644;19;20019;-55
2022/12/31 06:17:31;;;;;;;8.52;6.47;;;11.40;99.90;;;;;;7380171;19;20030;-55
2022/12/31 06:19:58;;;;;;;8.32;6.32;;;11.40;99.90;;;;;;7378759;19;20491;-52
2022/12/31 06:22:25;;;;;;;7.78;5.80;;;11.40;99.90;;;;;;7378797;19;20609;-52
2022/12/31 06:24:51;;;;;;;7.97;5.32;;;11.40;99.90;;;;;;7377779;19;20029;-55
2022/12/31 06:27:18;;;;;;;7.85;5.38;;;11.30;99.90;;;;;;7378803;19;20022;-55
2022/12/31 06:29:49;;;;;;;7.50;5.28;;;11.40;99.90;;;;;;7372978;19;20022;-55
2022/12/31 06:32:16;;;;;;;8.40;5.60;;;11.30;99.90;;;;;;7375553;19;20018;-56
2022/12/31 06:34:42;;;;;;;9.85;6.30;;;11.30;99.90;;;;;;7374991;19;20026;-54
2022/12/31 06:37:09;;;;;;;8.75;6.05;;;11.30;99.90;;;;;;7376585;19;20483;-55
2022/12/31 06:39:36;;;;;;;9.50;6.43;;;11.30;99.90;;;;;;7371332;19;20021;-54
2022/12/31 06:42:02;;;;;;;10.18;6.97;;;11.30;99.90;;;;;;7376164;19;20086;-55
2022/12/31 06:44:28;;;;;;;8.93;6.13;;;11.30;99.90;;;;;;7375223;19;20557;-57
2022/12/31 06:46:55;;;;;;;7.68;5.68;;;11.30;99.90;;;;;;7377333;19;20010;-55
2022/12/31 06:49:21;;;;;;;10.85;5.22;;;11.30;99.90;;;;;;7380172;19;20105;-56
2022/12/31 06:51:47;;;;;;;7.03;5.07;;;11.30;99.90;;;;;;7374583;19;20373;-56
2022/12/31 06:54:13;;;;;;;7.95;5.38;;;11.30;99.90;;;;;;7375338;19;20608;-55
2022/12/31 06:56:41;;;;;;;7.85;5.32;;;11.30;99.90;;;;;;7374936;19;20386;-55
2022/12/31 06:59:25;;;;;;;11.07;6.05;;;11.30;99.90;;;;;;7374037;19;20022;-55
2022/12/31 07:02:32;;;;;;;9.27;6.40;;;11.20;99.90;;;;;;7375826;19;20038;-55
2022/12/31 07:05:14;;;;;;;8.38;6.88;;;11.20;99.90;;;;;;7375027;19;20018;-56
2022/12/31 07:07:55;;;;;;;10.23;7.22;;;11.20;99.90;;;;;;7375631;19;20024;-56
2022/12/31 07:10:49;;;;;;;10.55;7.70;;;11.30;99.90;;;;;;7372343;19;20006;-57
2022/12/31 07:13:18;;;;;;;10.15;7.43;;;11.20;99.90;;;;;;7376449;19;20044;-56
2022/12/31 07:16:11;;;;;;;11.23;7.30;;;11.30;99.90;;;;;;7377988;19;20507;-51
2022/12/31 07:18:42;;;;;;;10.30;7.13;;;11.20;99.90;;;;;;7368044;19;20025;-51
2022/12/31 07:21:17;;;;;;;9.88;7.65;;;11.20;99.90;;;;;;7373352;19;20018;-56
2022/12/31 07:23:45;;;;;;;12.15;7.88;;;11.20;99.90;;;;;;7374279;19;20018;-57
2022/12/31 07:26:33;;;;;;;11.52;7.65;;;11.20;99.90;;;;;;7375808;19;20538;-57
2022/12/31 07:29:19;;;;;;;11.05;7.53;;;11.20;99.90;;;;;;7376124;19;20018;-56
2022/12/31 07:31:59;;;;;;;13.18;7.22;;;11.20;99.90;;;;;;7372843;19;20045;-53
2022/12/31 07:34:51;;;;;;;11.82;7.05;;;11.20;99.90;;;;;;7375173;19;20089;-52
2022/12/31 07:37:42;;;;;;;11.93;6.32;;;11.20;99.90;;;;;;7375830;19;20035;-57
2022/12/31 07:40:47;;;;;;;12.52;6.85;;;11.20;99.90;;;;;;7370866;19;20011;-57
2022/12/31 07:43:39;;;;;;;9.60;6.10;;;11.20;99.90;;;;;;7371890;19;20137;-57
2022/12/31 07:46:29;;;;;;;12.05;6.50;;;11.20;99.90;;;;;;7376208;19;20018;-54
2022/12/31 07:48:57;;;;;;;12.45;6.97;;;11.30;99.90;;;;;;7376199;19;20394;-53
2022/12/31 07:51:24;;;;;;;9.38;6.53;;;11.30;99.90;;;;;;7371480;19;20022;-53
2022/12/31 07:54:10;;;;;;;9.70;5.70;;;11.40;99.90;;;;;;7375733;19;20797;-52
2022/12/31 07:56:36;;;;;;;8.82;5.53;;;11.40;99.90;;;;;;7372429;19;20018;-53
2022/12/31 07:59:27;;;;;;;9.25;4.88;;;11.40;99.90;;;;;;7369218;19;20022;-52
2022/12/31 08:02:12;;;;;;;9.30;5.55;;;11.50;99.90;;;;;;7374438;19;20022;-55
2022/12/31 08:05:07;;;;;;;8.80;6.00;;;11.40;99.90;;;;;;7367035;19;20019;-54
2022/12/31 08:07:58;;;;;;;9.13;5.57;;;11.50;99.90;;;;;;7374005;19;20518;-56
2022/12/31 08:10:30;;;;;;;8.63;5.82;;;11.50;99.90;;;;;;7370122;19;20010;-56
2022/12/31 08:13:02;;;;;;;8.13;6.55;;;11.50;99.90;;;;;;7371546;19;20580;-57
2022/12/31 08:15:32;;;;;;;7.80;6.20;;;11.60;99.90;;;;;;7375114;19;20018;-53
2022/12/31 08:17:58;;;;;;;8.85;6.90;;;11.60;99.90;;;;;;7366335;19;20022;-54
2022/12/31 08:20:25;;;;;;;9.10;7.25;;;11.60;99.90;;;;;;7368480;19;20378;-54
2022/12/31 08:23:03;;;;;;;11.98;7.55;;;11.60;99.90;;;;;;7367132;19;20089;-54
2022/12/31 08:25:42;;;;;;;10.18;7.55;;;11.60;99.90;;;;;;7371994;19;20549;-53
2022/12/31 08:28:25;;;;;;;12.13;7.85;;;11.70;99.90;;;;;;7373092;19;20045;-53
2022/12/31 08:31:00;;;;;;;10.98;8.48;;;11.70;99.90;;;;;;7371588;19;20018;-52
2022/12/31 08:33:51;;;;;;;12.40;9.07;;;11.80;99.90;;;;;;7371650;19;20159;-52
2022/12/31 08:36:53;;;;;;;12.32;8.52;;;11.90;99.90;;;;;;7369214;19;20025;-54
2022/12/31 08:39:44;;;;;;;13.85;9.65;;;11.90;99.90;;;;;;7371573;19;20494;-55
2022/12/31 08:42:45;;;;;;;13.02;8.77;;;12.10;99.90;;;;;;7374219;19;20035;-55
2022/12/31 08:45:38;;;;;;;11.95;8.63;;;12.10;99.90;;;;;;7375657;19;20382;-55
2022/12/31 08:48:24;;;;;;;11.20;8.00;;;12.20;99.90;;;;;;7367566;19;20015;-55
2022/12/31 08:50:50;;;;;;;10.15;7.45;;;12.20;99.90;;;;;;7367859;19;20455;-55
2022/12/31 08:53:17;;;;;;;9.52;7.15;;;12.30;99.90;;;;;;7372030;19;20623;-56
2022/12/31 08:55:45;;;;;;;7.90;6.38;;;12.40;99.90;;;;;;7374061;19;20018;-55
2022/12/31 08:58:18;;;;;;;8.05;6.80;;;12.50;99.90;;;;;;7370544;19;20018;-56
2022/12/31 09:00:47;;;;;;;7.57;6.75;;;12.60;99.90;;;;;;7371028;19;20744;-55
2022/12/31 09:03:32;;;;;;;8.52;6.25;;;12.50;99.90;;;;;;7369343;19;20632;-55
2022/12/31 09:06:39;;;;;;;8.52;7.03;;;12.60;99.90;;;;;;7368716;19;20369;-55
2022/12/31 09:09:12;;;;;;;7.47;6.57;;;12.70;99.90;;;;;;7369613;19;20053;-56
2022/12/31 09:11:56;;;;;;;6.75;5.25;;;12.80;99.90;;;;;;7366125;19;20374;-56
2022/12/31 09:14:55;;;;;;;5.35;4.80;;;12.90;99.90;;;;;;7365779;19;20014;-54
2022/12/31 09:17:36;;;;;;;5.68;4.57;;;13.00;99.90;;;;;;7371722;19;20078;-56
2022/12/31 09:20:04;;;;;;;5.03;3.95;;;13.00;99.90;;;;;;7370267;19;20029;-56
2022/12/31 09:22:30;;;;;;;5.03;3.42;;;13.00;99.90;;;;;;7364050;19;20349;-56
2022/12/31 09:24:57;;;;;;;5.85;3.30;;;13.00;99.90;;;;;;7374382;19;20019;-56
2022/12/31 09:28:01;;;;;;;3.05;2.55;;;13.10;99.90;;;;;;7368060;19;20022;-56
2022/12/31 09:30:37;;;;;;;5.05;2.50;;;13.10;99.90;;;;;;7368578;19;20026;-56
2022/12/31 09:33:10;;;;;;;4.50;2.35;;;13.10;99.90;;;;;;7373231;19;20504;-56
2022/12/31 09:35:47;;;;;;;5.15;2.10;;;13.10;99.90;;;;;;7369450;19;20074;-56
2022/12/31 09:38:44;;;;;;;2.40;1.63;;;13.10;99.90;;;;;;7374445;19;20019;-56
2022/12/31 09:41:22;;;;;;;1.92;1.27;;;13.10;99.90;;;;;;7368873;19;20489;-56
2022/12/31 09:44:11;;;;;;;2.30;1.30;;;13.10;99.90;;;;;;7372676;19;20498;-56
2022/12/31 09:46:37;;;;;;;2.60;1.40;;;13.10;99.90;;;;;;7377951;19;20493;-57
2022/12/31 09:49:22;;;;;;;4.00;1.63;;;13.10;99.90;;;;;;7373360;19;20695;-57
2022/12/31 09:52:06;;;;;;;2.72;1.50;;;13.20;99.90;;;;;;7377319;19;20367;-57
2022/12/31 09:54:53;;;;;;;3.63;1.13;;;13.20;99.90;;;;;;7376787;19;20089;-57
2022/12/31 09:57:40;;;;;;;3.20;1.05;;;13.30;99.90;;;;;;7381462;19;20014;-57
2022/12/31 10:00:22;;;;;;;3.15;1.25;;;13.40;99.90;;;;;;7376195;19;20023;-56
2022/12/31 10:03:17;;;;;;;2.72;1.30;;;13.40;99.90;;;;;;7375373;19;20022;-57
2022/12/31 10:06:14;;;;;;;2.40;1.15;;;13.50;99.90;;;;;;7376458;19;20489;-57
2022/12/31 10:09:05;;;;;;;2.03;1.02;;;13.40;99.90;;;;;;7378794;19;20033;-56
2022/12/31 10:12:15;;;;;;;1.77;1.25;;;13.50;99.90;;;;;;7377890;19;20015;-57
2022/12/31 10:14:54;;;;;;;2.58;1.10;;;13.60;99.90;;;;;;7379511;19;20018;-57
2022/12/31 10:17:32;;;;;;;3.13;1.10;;;13.70;99.90;;;;;;7376333;19;20038;-57
2022/12/31 10:20:22;;;;;;;2.33;0.85;;;13.60;99.90;;;;;;7374341;19;20019;-57
2022/12/31 10:23:26;;;;;;;1.60;1.02;;;13.50;99.90;;;;;;7370115;19;20023;-56
2022/12/31 10:26:10;;;;;;;2.95;0.98;;;13.60;99.90;;;;;;7375498;19;20014;-56
2022/12/31 10:29:02;;;;;;;2.28;1.00;;;13.60;99.90;;;;;;7377030;19;20014;-56
2022/12/31 10:31:36;;;;;;;3.50;1.05;;;13.70;99.90;;;;;;7374428;19;20090;-56
2022/12/31 10:34:19;;;;;;;2.88;1.10;;;13.70;99.90;;;;;;7371089;19;20361;-56
2022/12/31 10:36:45;;;;;;;4.75;1.23;;;13.70;99.90;;;;;;7376990;19;20406;-56
2022/12/31 10:39:21;;;;;;;3.88;1.23;;;13.70;99.90;;;;;;7375001;19;20040;-56
2022/12/31 10:42:06;;;;;;;4.43;1.38;;;13.80;99.90;;;;;;7372445;19;20031;-56
2022/12/31 10:44:54;;;;;;;2.70;1.13;;;13.80;99.90;;;;;;7378299;19;20063;-56
2022/12/31 10:47:45;;;;;;;4.05;1.73;;;13.90;99.90;;;;;;7376010;19;20022;-56
2022/12/31 10:50:30;;;;;;;5.00;1.60;;;13.80;99.90;;;;;;7376959;19;20027;-56
2022/12/31 10:53:21;;;;;;;3.67;1.50;;;13.80;99.90;;;;;;7379872;19;20011;-56
2022/12/31 10:56:08;;;;;;;4.80;1.40;;;13.80;99.90;;;;;;7375488;19;20378;-56
2022/12/31 10:58:54;;;;;;;6.85;1.90;;;13.80;99.90;;;;;;7373159;19;20074;-55
2022/12/31 11:01:31;;;;;;;4.47;2.35;;;13.70;99.90;;;;;;7371959;19;20014;-56
2022/12/31 11:04:34;;;;;;;5.55;2.10;;;13.70;99.90;;;;;;7376276;19;20399;-56
2022/12/31 11:07:32;;;;;;;4.68;2.10;;;13.60;99.90;;;;;;7379094;19;20138;-56
2022/12/31 11:10:26;;;;;;;6.53;2.28;;;13.50;99.90;;;;;;7377144;19;20010;-56
2022/12/31 11:13:08;;;;;;;5.78;2.60;;;13.50;99.90;;;;;;7374820;19;20022;-55
2022/12/31 11:15:58;;;;;;;6.90;2.67;;;13.40;99.90;;;;;;7376606;19;20022;-57
2022/12/31 11:18:36;;;;;;;4.75;2.10;;;13.40;99.90;;;;;;7377957;19;20464;-56
2022/12/31 11:21:20;;;;;;;4.95;2.50;;;13.40;99.90;;;;;;7377164;19;20372;-56
2022/12/31 11:24:02;;;;;;;5.85;2.67;;;13.40;99.90;;;;;;7371440;19;20018;-56
2022/12/31 11:27:00;;;;;;;5.88;2.38;;;13.40;99.90;;;;;;7374194;19;20022;-57
2022/12/31 11:29:38;;;;;;;4.18;2.72;;;13.40;99.90;;;;;;7376665;19;20025;-56
2022/12/31 11:32:17;;;;;;;7.53;3.00;;;13.40;99.90;;;;;;7377620;19;20014;-56
2022/12/31 11:35:16;;;;;;;7.07;3.05;;;13.40;99.90;;;;;;7372682;19;20380;-57
2022/12/31 11:37:45;;;;;;;6.50;3.80;;;13.50;99.90;;;;;;7373247;19;20011;-57
2022/12/31 11:40:38;;;;;;;7.53;3.67;;;13.60;99.90;;;;;;7374448;19;20504;-57
2022/12/31 11:43:35;;;;;;;6.93;4.13;;;13.60;99.90;;;;;;7373993;19;20022;-57
2022/12/31 11:46:26;;;;;;;6.50;2.92;;;13.60;99.90;;;;;;7376272;19;20413;-57
2022/12/31 11:49:20;;;;;;;7.10;3.22;;;13.70;99.90;;;;;;7374573;19;20010;-57
2022/12/31 11:51:52;;;;;;;6.80;3.63;;;13.60;99.90;;;;;;7375659;19;20049;-57
2022/12/31 11:54:52;;;;;;;5.38;3.45;;;13.70;99.90;;;;;;7368964;19;20026;-57
2022/12/31 11:57:37;;;;;;;7.50;3.88;;;13.70;99.90;;;;;;7371530;19;20485;-56
2022/12/31 12:00:12;;;;;;;7.90;4.50;;;13.80;99.90;;;;;;7372887;19;20488;-56
2022/12/31 12:02:44;;;;;;;10.65;6.03;;;13.80;99.90;;;;;;7372064;19;20597;-56
2022/12/31 12:05:15;;;;;;;10.73;6.90;;;13.80;99.90;;;;;;7369603;19;20030;-56
2022/12/31 12:07:42;;;;;;;11.43;5.93;;;13.90;99.90;;;;;;7372874;19;20014;-56
2022/12/31 12:10:31;;;;;;;7.47;4.80;;;13.90;99.90;;;;;;7375685;19;20049;-56
2022/12/31 12:12:58;;;;;;;7.95;4.00;;;13.90;99.90;;;;;;7373944;19;20019;-56
2022/12/31 12:15:33;;;;;;;6.13;3.50;;;14.00;99.90;;;;;;7372558;19;20395;-57
2022/12/31 12:18:08;;;;;;;5.55;3.00;;;14.00;99.90;;;;;;7378146;19;20573;-57
2022/12/31 12:20:37;;;;;;;5.10;3.08;;;14.00;99.90;;;;;;7374805;19;20022;-57
2022/12/31 12:23:22;;;;;;;4.43;2.70;;;14.00;99.90;;;;;;7376483;19;20023;-57
2022/12/31 12:25:49;;;;;;;5.80;2.45;;;14.00;99.90;;;;;;7371603;19;20019;-57
2022/12/31 12:28:25;;;;;;;4.28;2.22;;;14.00;99.90;;;;;;7378168;19;20109;-57
2022/12/31 12:31:04;;;;;;;4.80;1.80;;;14.00;99.90;;;;;;7370842;19;20545;-57
2022/12/31 12:33:42;;;;;;;3.42;1.58;;;13.90;99.90;;;;;;7367871;19;20046;-57
2022/12/31 12:36:14;;;;;;;3.85;1.48;;;13.90;99.90;;;;;;7377803;19;20022;-58
2022/12/31 12:38:42;;;;;;;3.13;1.60;;;13.90;99.90;;;;;;7371449;19;20010;-57
2022/12/31 12:41:27;;;;;;;3.97;1.85;;;13.90;99.90;;;;;;7373827;19;20086;-57
2022/12/31 12:44:05;;;;;;;5.78;1.55;;;13.80;99.90;;;;;;7370789;19;20042;-57
2022/12/31 12:46:45;;;;;;;4.78;1.60;;;13.90;99.90;;;;;;7370118;19;20106;-57
2022/12/31 12:49:26;;;;;;;6.97;1.63;;;13.90;99.90;;;;;;7375031;19;20030;-56
2022/12/31 12:52:16;;;;;;;4.38;1.80;;;13.80;99.90;;;;;;7372804;19;20025;-56
2022/12/31 12:55:21;;;;;;;3.17;1.40;;;13.80;99.90;;;;;;7372649;19;20029;-56
2022/12/31 12:58:11;;;;;;;5.53;1.95;;;13.80;99.90;;;;;;7371434;19;20022;-56
2022/12/31 13:00:58;;;;;;;4.20;1.90;;;13.70;99.90;;;;;;7372731;19;21439;-58
2022/12/31 13:03:54;;;;;;;4.32;1.98;;;13.80;99.90;;;;;;7372241;19;20019;-56
2022/12/31 13:06:55;;;;;;;4.80;2.35;;;13.80;99.90;;;;;;7367894;19;20475;-56
2022/12/31 13:09:32;;;;;;;4.45;2.42;;;13.80;99.90;;;;;;7368830;19;20018;-56
2022/12/31 13:11:59;;;;;;;3.88;1.80;;;13.70;99.90;;;;;;7369414;19;20019;-56
2022/12/31 13:14:43;;;;;;;7.03;2.58;;;13.80;99.90;;;;;;7366353;19;20513;-56
2022/12/31 13:17:43;;;;;;;5.45;2.55;;;13.80;99.90;;;;;;7375733;19;20472;-56
2022/12/31 13:20:34;;;;;;;4.47;1.90;;;13.80;99.90;;;;;;7373823;19;20022;-56
2022/12/31 13:23:23;;;;;;;5.43;2.67;;;13.80;99.90;;;;;;7374343;19;20269;-55
2022/12/31 13:26:14;;;;;;;4.03;2.20;;;13.80;99.90;;;;;;7375565;19;20042;-56
2022/12/31 13:28:44;;;;;;;5.47;2.50;;;13.70;99.90;;;;;;7376571;19;20740;-56
2022/12/31 13:31:20;;;;;;;6.22;3.45;;;13.70;99.90;;;;;;7378243;19;20025;-57
2022/12/31 13:34:05;;;;;;;5.65;2.60;;;13.70;99.90;;;;;;7378414;19;20034;-57
2022/12/31 13:36:33;;;;;;;8.32;3.60;;;13.70;99.90;;;;;;7378281;19;20014;-57
2022/12/31 13:39:04;;;;;;;7.72;2.83;;;13.70;99.90;;;;;;7379147;19;20029;-57
2022/12/31 13:41:40;;;;;;;4.85;2.47;;;13.60;99.90;;;;;;7382636;19;20014;-58
2022/12/31 13:44:19;;;;;;;7.65;2.55;;;13.70;99.90;;;;;;7383388;19;20022;-56
2022/12/31 13:46:52;;;;;;;9.82;3.45;;;13.60;99.90;;;;;;7380083;19;20018;-57